Time;durP1;ratioP1;P1;durP2;ratioP2;P2;SDS_P1;SDS_P2;PMS_P1;PMS_P2;Temp;Humidity;BMP_temperature;BMP_pressure;BME280_temperature;BME280_humidity;BME280_pressure;Samples;Min_cycle;Max_cycle;Signal;HPM_P1;HPM_P2
2024/01/03 00:01:37;;;;;;;2.30;0.90;;;;;;;8.24;88.31;93866.13;5019695;28;20195;-77
2024/01/03 00:04:02;;;;;;;4.00;0.90;;;;;;;8.47;88.13;93866.13;5021493;28;20171;-78
2024/01/03 00:06:33;;;;;;;1.80;0.90;;;;;;;8.32;88.00;93846.38;5016722;28;20196;-78
2024/01/03 00:08:58;;;;;;;3.00;1.03;;;;;;;8.39;87.29;93857.63;5002233;28;20186;-78
2024/01/03 00:11:27;;;;;;;3.40;1.67;;;;;;;8.58;86.74;93853.75;5024315;28;20190;-78
2024/01/03 00:14:21;;;;;;;3.57;1.37;;;;;;;8.36;87.86;93863.16;4999581;28;20211;-78
2024/01/03 00:16:46;;;;;;;3.33;0.90;;;;;;;8.46;87.08;93849.00;5005788;28;20187;-78
2024/01/03 00:19:15;;;;;;;2.83;1.00;;;;;;;8.35;86.55;93857.19;5016999;28;20194;-78
2024/01/03 00:21:41;;;;;;;4.30;1.00;;;;;;;8.45;nan;93855.16;5013962;28;20855;-78
2024/01/03 00:24:09;;;;;;;3.13;1.10;;;;;;;8.39;85.11;93862.78;5003478;28;20179;-78
2024/01/03 00:26:36;;;;;;;2.03;0.97;;;;;;;8.66;84.86;93867.44;5020953;28;20178;-77
2024/01/03 00:29:03;;;;;;;4.70;0.93;;;;;;;8.38;85.37;93867.16;5002903;28;20241;-77
2024/01/03 00:31:38;;;;;;;4.50;1.10;;;;;;;8.52;84.08;93852.66;5017953;28;20187;-78
2024/01/03 00:34:10;;;;;;;5.50;1.30;;;;;;;8.56;84.27;93853.91;5019242;28;20214;-78
2024/01/03 00:36:35;;;;;;;2.07;0.70;;;;;;;8.46;84.94;93837.84;5033370;28;20180;-77
2024/01/03 00:39:01;;;;;;;6.33;1.10;;;;;;;8.57;84.53;93850.38;5001392;28;20202;-77
2024/01/03 00:41:26;;;;;;;2.50;1.00;;;;;;;8.63;83.61;93841.06;5019807;28;20186;-77
2024/01/03 00:43:51;;;;;;;1.80;0.87;;;;;;;8.50;83.64;93854.63;5018590;28;20182;-77
2024/01/03 00:46:17;;;;;;;2.40;1.10;;;;;;;8.59;83.30;93842.44;5002444;28;20237;-77
2024/01/03 00:48:42;;;;;;;5.80;1.10;;;;;;;8.58;83.99;93851.97;5000893;28;20219;-78
2024/01/03 00:51:08;;;;;;;2.07;1.10;;;;;;;8.58;83.46;93864.91;4999497;28;20179;-77
2024/01/03 00:53:33;;;;;;;2.00;1.00;;;;;;;8.60;82.57;93855.19;5006210;28;20687;-78
2024/01/03 00:55:59;;;;;;;1.73;0.90;;;;;;;8.60;83.10;93860.34;5018468;28;20195;-78
2024/01/03 00:58:24;;;;;;;2.13;0.83;;;;;;;8.44;82.94;93856.13;5002162;28;20206;-78
2024/01/03 01:00:50;;;;;;;0.90;0.60;;;;;;;8.41;82.92;93864.25;4999522;28;20191;-76
2024/01/03 01:03:15;;;;;;;4.10;1.00;;;;;;;8.47;83.98;93860.94;5020250;28;20664;-78
2024/01/03 01:05:40;;;;;;;3.20;1.10;;;;;;;8.44;84.15;93866.47;5015479;28;20597;-78
2024/01/03 01:08:06;;;;;;;1.80;0.80;;;;;;;8.54;83.66;93873.19;5002623;28;20386;-77
2024/01/03 01:10:31;;;;;;;2.57;0.87;;;;;;;8.61;83.42;93861.97;5018045;28;20202;-78
2024/01/03 01:12:57;;;;;;;3.03;0.97;;;;;;;8.63;83.62;93867.75;5001749;28;20179;-78
2024/01/03 01:15:22;;;;;;;2.67;1.17;;;;;;;8.47;83.89;93842.84;5002851;28;20360;-78
2024/01/03 01:17:48;;;;;;;1.37;0.90;;;;;;;8.80;82.42;93871.78;5026136;28;20668;-78
2024/01/03 01:20:13;;;;;;;3.97;1.70;;;;;;;8.72;82.73;93878.84;5025140;28;20191;-78
2024/01/03 01:22:38;;;;;;;3.63;1.10;;;;;;;8.67;82.48;93866.44;5019568;28;20187;-78
2024/01/03 01:25:04;;;;;;;2.77;0.90;;;;;;;8.56;82.26;93855.69;5022011;28;20183;-77
2024/01/03 01:27:30;;;;;;;5.00;1.10;;;;;;;8.74;81.46;93867.31;5006561;28;20219;-77
2024/01/03 01:29:55;;;;;;;2.93;1.37;;;;;;;8.86;81.61;93853.97;5006483;28;20214;-78
2024/01/03 01:32:20;;;;;;;2.03;1.30;;;;;;;8.87;81.77;93873.69;5024534;28;20194;-77
2024/01/03 01:34:46;;;;;;;5.67;1.17;;;;;;;8.76;82.03;93885.28;5023602;28;20696;-77
2024/01/03 01:37:11;;;;;;;4.00;1.00;;;;;;;8.78;83.58;93891.06;5024841;28;20750;-78
2024/01/03 01:39:36;;;;;;;7.60;1.47;;;;;;;8.49;84.51;93884.88;5023169;28;20574;-76
2024/01/03 01:42:02;;;;;;;2.37;0.90;;;;;;;8.64;85.01;93897.03;5008988;28;20700;-77
2024/01/03 01:44:27;;;;;;;4.30;1.00;;;;;;;8.49;85.43;93886.66;5008831;28;20179;-77
2024/01/03 01:46:52;;;;;;;1.60;0.80;;;;;;;8.41;84.83;93903.06;5019580;28;20223;-77
2024/01/03 01:49:18;;;;;;;1.43;0.80;;;;;;;8.56;84.63;93910.03;5003251;28;20191;-78
2024/01/03 01:51:44;;;;;;;1.70;0.80;;;;;;;8.34;84.14;93902.09;5023164;28;20269;-78
2024/01/03 01:54:11;;;;;;;1.10;0.70;;;;;;;8.56;83.98;93903.06;5008247;28;20211;-78
2024/01/03 01:56:37;;;;;;;2.53;0.63;;;;;;;8.46;83.94;93918.84;5020182;28;20202;-77
2024/01/03 01:59:02;;;;;;;0.90;0.70;;;;;;;8.52;83.67;93894.06;5005736;28;20195;-76
2024/01/03 02:01:30;;;;;;;1.30;0.60;;;;;;;8.58;83.59;93914.06;5025011;28;20212;-77
2024/01/03 02:03:55;;;;;;;1.50;0.80;;;;;;;8.54;83.54;93902.44;5007390;28;20183;-77
2024/01/03 02:06:21;;;;;;;3.00;0.70;;;;;;;8.51;83.19;93911.38;5005014;28;20190;-77
2024/01/03 02:08:47;;;;;;;3.50;0.60;;;;;;;8.72;82.82;93902.94;5025499;28;20246;-78
2024/01/03 02:11:12;;;;;;;1.27;0.70;;;;;;;8.64;82.99;93913.34;5025439;28;20199;-78
2024/01/03 02:13:38;;;;;;;1.50;0.60;;;;;;;8.49;83.00;93904.78;5024319;28;20183;-78
2024/01/03 02:16:04;;;;;;;3.67;0.80;;;;;;;8.53;83.20;93893.09;5020182;28;20655;-77
2024/01/03 02:18:29;;;;;;;0.73;0.70;;;;;;;8.58;82.60;93887.41;5011492;28;20625;-77
2024/01/03 02:20:56;;;;;;;1.90;0.50;;;;;;;8.63;82.39;93885.88;5004566;28;20193;-77
2024/01/03 02:23:22;;;;;;;2.30;0.50;;;;;;;8.55;82.69;93914.41;5021834;28;20194;-77
2024/01/03 02:25:47;;;;;;;1.90;0.70;;;;;;;8.61;82.36;93895.59;5004909;28;20204;-77
2024/01/03 02:28:13;;;;;;;1.87;0.80;;;;;;;8.74;82.54;93895.78;5021396;28;20203;-78
2024/01/03 02:30:41;;;;;;;1.87;0.90;;;;;;;8.66;82.57;93905.44;5020509;28;20207;-78
2024/01/03 02:33:06;;;;;;;2.03;0.70;;;;;;;8.57;82.87;93896.94;5005146;28;20253;-78
2024/01/03 02:35:32;;;;;;;1.97;0.60;;;;;;;8.50;82.84;93896.84;5022364;28;20604;-78
2024/01/03 02:37:57;;;;;;;1.83;0.77;;;;;;;8.55;82.90;93898.06;5019772;28;20217;-77
2024/01/03 02:40:22;;;;;;;1.83;0.70;;;;;;;8.52;82.96;93894.06;5021085;28;20238;-78
2024/01/03 02:42:48;;;;;;;2.37;0.77;;;;;;;8.55;82.53;93895.50;5025040;28;20242;-78
2024/01/03 02:45:13;;;;;;;0.83;0.53;;;;;;;8.40;81.61;93908.41;5023311;28;20187;-78
2024/01/03 02:47:39;;;;;;;1.43;1.03;;;;;;;8.58;80.46;93903.72;5017496;28;20203;-78
2024/01/03 02:50:04;;;;;;;1.87;0.67;;;;;;;8.57;80.98;93909.03;5019870;28;20206;-77
2024/01/03 02:52:30;;;;;;;1.97;0.80;;;;;;;8.57;81.05;93912.47;5023729;28;20198;-77
2024/01/03 02:54:55;;;;;;;2.87;0.50;;;;;;;8.49;81.61;93891.84;5006212;28;20215;-78
2024/01/03 02:57:20;;;;;;;1.70;0.80;;;;;;;8.59;80.80;93905.31;5019929;28;20212;-77
2024/01/03 02:59:46;;;;;;;3.43;0.80;;;;;;;8.64;80.45;93900.41;5021251;28;20615;-77
2024/01/03 03:02:11;;;;;;;0.80;0.70;;;;;;;8.47;80.82;93901.53;5004629;28;20210;-78
2024/01/03 03:04:36;;;;;;;1.47;0.80;;;;;;;8.48;81.23;93897.97;5022643;28;20179;-78
2024/01/03 03:07:02;;;;;;;2.67;1.17;;;;;;;8.56;80.89;93903.06;5024128;28;20214;-76
2024/01/03 03:09:27;;;;;;;1.57;0.60;;;;;;;8.51;81.27;93897.63;5031876;28;20179;-77
2024/01/03 03:11:52;;;;;;;4.60;1.00;;;;;;;8.51;81.23;93892.47;5014435;28;20191;-77
2024/01/03 03:14:18;;;;;;;2.83;0.80;;;;;;;8.54;81.17;93889.50;5033117;28;20213;-76
2024/01/03 03:16:43;;;;;;;3.60;0.83;;;;;;;8.41;81.45;93881.56;5020543;28;20213;-78
2024/01/03 03:19:08;;;;;;;3.37;0.80;;;;;;;8.49;80.86;93899.59;5024311;28;20187;-78
2024/01/03 03:21:34;;;;;;;2.30;0.87;;;;;;;8.33;81.17;93903.09;5019645;28;20186;-77
2024/01/03 03:24:01;;;;;;;2.17;0.87;;;;;;;8.49;80.66;93904.78;5019395;28;20195;-78
2024/01/03 03:26:26;;;;;;;2.10;0.77;;;;;;;8.42;79.62;93893.50;5018248;28;20183;-77
2024/01/03 03:28:51;;;;;;;4.50;1.00;;;;;;;8.47;79.22;93907.50;5022394;28;20217;-77
2024/01/03 03:31:17;;;;;;;2.73;1.07;;;;;;;8.50;78.58;93904.59;5001875;28;20179;-77
2024/01/03 03:33:42;;;;;;;3.37;0.67;;;;;;;8.56;78.93;93895.31;5019324;28;20229;-78
2024/01/03 03:36:11;;;;;;;3.00;0.90;;;;;;;8.50;78.33;93906.38;5019889;28;20794;-77
2024/01/03 03:38:37;;;;;;;2.40;0.80;;;;;;;8.56;77.74;93897.91;5018549;28;20219;-78
2024/01/03 03:41:02;;;;;;;2.33;0.80;;;;;;;8.62;76.87;93897.22;5017372;28;20198;-78
2024/01/03 03:43:27;;;;;;;4.70;1.00;;;;;;;8.50;76.86;93890.84;5023610;28;20829;-78
2024/01/03 03:45:53;;;;;;;3.27;0.90;;;;;;;8.44;76.42;93892.34;5021363;28;20195;-77
2024/01/03 03:48:18;;;;;;;4.00;0.93;;;;;;;8.46;75.20;93889.59;5017805;28;20210;-77
2024/01/03 03:50:44;;;;;;;2.77;1.00;;;;;;;8.43;75.84;93902.88;5013012;28;20199;-78
2024/01/03 03:53:10;;;;;;;4.13;1.07;;;;;;;8.50;75.49;93908.97;5001482;28;20187;-78
2024/01/03 03:55:39;;;;;;;3.73;1.10;;;;;;;8.52;75.58;93899.25;5015865;28;20214;-78
2024/01/03 03:58:05;;;;;;;4.53;1.00;;;;;;;8.59;75.69;93905.31;5010936;28;20229;-78
2024/01/03 04:00:30;;;;;;;6.03;1.23;;;;;;;8.64;75.27;93922.91;5019516;28;20692;-78
2024/01/03 04:02:56;;;;;;;3.47;0.90;;;;;;;8.42;76.23;93914.19;5020710;28;20187;-77
2024/01/03 04:05:21;;;;;;;5.80;1.00;;;;;;;8.49;75.55;93909.94;5022680;28;20197;-77
2024/01/03 04:07:46;;;;;;;4.57;1.50;;;;;;;8.37;75.14;93914.72;5002556;28;20203;-78
2024/01/03 04:10:12;;;;;;;3.63;1.37;;;;;;;8.57;75.08;93911.63;5006460;28;20179;-78
2024/01/03 04:12:38;;;;;;;4.83;1.30;;;;;;;8.37;75.65;93903.56;5018864;28;20197;-77
2024/01/03 04:15:04;;;;;;;3.47;1.00;;;;;;;8.43;75.57;93892.53;5019479;28;20250;-78
2024/01/03 04:17:29;;;;;;;1.53;0.90;;;;;;;8.41;75.57;93892.72;5021347;28;20688;-78
2024/01/03 04:19:55;;;;;;;4.20;0.90;;;;;;;8.44;74.83;93918.22;5016644;28;20198;-78
2024/01/03 04:22:21;;;;;;;7.07;1.33;;;;;;;8.34;74.82;93917.63;5016393;28;20260;-78
2024/01/03 04:24:47;;;;;;;5.80;1.43;;;;;;;8.18;74.90;93909.97;5019149;28;20187;-78
2024/01/03 04:27:12;;;;;;;5.43;1.30;;;;;;;8.52;73.98;93912.19;5019993;28;20217;-78
2024/01/03 04:29:37;;;;;;;6.03;1.00;;;;;;;8.36;74.41;93910.53;5019904;28;20186;-77
2024/01/03 04:32:06;;;;;;;10.67;2.73;;;;;;;8.24;74.67;93907.50;5015900;28;20195;-78
2024/01/03 04:34:31;;;;;;;5.43;1.00;;;;;;;8.46;73.68;93920.63;5018566;28;20210;-77
2024/01/03 04:36:57;;;;;;;6.97;1.97;;;;;;;8.28;74.50;93920.88;5001674;28;20219;-78
2024/01/03 04:39:22;;;;;;;6.30;1.20;;;;;;;8.37;75.65;93938.00;5021213;28;20580;-77
2024/01/03 04:41:47;;;;;;;6.33;1.30;;;;;;;8.34;78.10;93942.69;5016571;28;20711;-76
2024/01/03 04:44:13;;;;;;;5.57;1.50;;;;;;;8.30;80.60;93934.44;5025015;28;20191;-78
2024/01/03 04:46:38;;;;;;;5.93;2.13;;;;;;;8.34;82.27;93927.97;5020912;28;20233;-78
2024/01/03 04:49:04;;;;;;;6.47;1.97;;;;;;;8.34;82.99;93938.31;5005416;28;20254;-78
2024/01/03 04:51:29;;;;;;;2.93;1.03;;;;;;;8.29;83.53;93934.63;5020192;28;20187;-78
2024/01/03 04:53:55;;;;;;;5.57;1.70;;;;;;;8.21;83.28;93940.66;5028679;28;20592;-77
2024/01/03 04:56:21;;;;;;;6.03;1.27;;;;;;;8.09;82.44;93952.38;5025569;28;20190;-78
2024/01/03 04:58:47;;;;;;;3.33;1.30;;;;;;;8.00;82.73;93949.03;5022474;28;20206;-77
2024/01/03 05:01:12;;;;;;;8.20;1.80;;;;;;;8.01;81.43;93952.44;5003655;28;20222;-77
2024/01/03 05:03:37;;;;;;;10.03;2.43;;;;;;;8.19;80.77;93938.25;5035803;28;20246;-78
2024/01/03 05:06:03;;;;;;;5.00;1.67;;;;;;;8.12;80.22;93942.50;5023668;28;20194;-77
2024/01/03 05:08:28;;;;;;;4.47;1.30;;;;;;;8.11;80.51;93922.78;5023747;28;20273;-77
2024/01/03 05:10:53;;;;;;;5.13;1.20;;;;;;;8.08;79.77;93922.34;5024190;28;20202;-77
2024/01/03 05:13:19;;;;;;;5.30;1.30;;;;;;;8.01;79.82;93952.44;5006577;28;20175;-77
2024/01/03 05:15:44;;;;;;;4.90;0.97;;;;;;;8.05;78.73;93913.16;5020440;28;20217;-78
2024/01/03 05:18:10;;;;;;;6.93;1.63;;;;;;;8.30;78.29;93934.44;5024813;28;20222;-78
2024/01/03 05:20:35;;;;;;;3.13;1.47;;;;;;;8.20;77.62;93933.88;5026694;28;20195;-77
2024/01/03 05:23:00;;;;;;;6.93;2.53;;;;;;;8.35;77.16;93939.16;5004467;28;20650;-77
2024/01/03 05:25:26;;;;;;;6.53;2.23;;;;;;;8.33;76.94;93941.06;5022324;28;20619;-78
2024/01/03 05:27:51;;;;;;;6.07;2.20;;;;;;;8.40;77.91;93958.34;5007620;28;20807;-78
2024/01/03 05:30:17;;;;;;;5.13;1.00;;;;;;;8.34;79.41;93938.31;5025397;28;20179;-77
2024/01/03 05:32:42;;;;;;;4.97;1.40;;;;;;;8.39;80.40;93935.22;5021199;28;20194;-76
2024/01/03 05:35:08;;;;;;;6.10;1.80;;;;;;;8.31;80.61;93930.91;5022269;28;20230;-77
2024/01/03 05:37:33;;;;;;;3.53;1.63;;;;;;;8.29;80.88;93929.44;5024225;28;20629;-78
2024/01/03 05:39:58;;;;;;;7.73;1.77;;;;;;;8.27;80.41;93941.75;5024988;28;20195;-78
2024/01/03 05:42:24;;;;;;;3.73;1.30;;;;;;;8.18;81.23;93928.09;5026337;28;20543;-77
2024/01/03 05:44:49;;;;;;;4.77;1.53;;;;;;;8.26;81.26;93945.31;5024226;28;20202;-78
2024/01/03 05:47:14;;;;;;;6.73;1.90;;;;;;;8.29;81.02;93950.13;5018947;28;20217;-78
2024/01/03 05:49:40;;;;;;;3.23;1.00;;;;;;;8.09;81.06;93948.00;5005097;28;20199;-77
2024/01/03 05:52:05;;;;;;;5.37;1.40;;;;;;;8.10;80.98;93934.09;5021086;28;20183;-78
2024/01/03 05:54:32;;;;;;;3.63;1.30;;;;;;;8.22;80.35;93970.75;5039045;28;20598;-78
2024/01/03 05:56:59;;;;;;;6.13;1.20;;;;;;;8.29;80.34;93958.69;5018686;28;20207;-78
2024/01/03 05:59:25;;;;;;;7.80;1.30;;;;;;;8.36;79.70;93945.94;5022858;28;20202;-78
2024/01/03 06:01:51;;;;;;;6.47;1.10;;;;;;;8.38;78.73;93944.78;5004735;28;20187;-77
2024/01/03 06:04:16;;;;;;;5.00;1.00;;;;;;;8.43;78.71;93963.16;5027283;28;20179;-78
2024/01/03 06:06:41;;;;;;;5.73;1.40;;;;;;;8.51;78.29;93959.72;5019454;28;20195;-78
2024/01/03 06:09:07;;;;;;;2.83;1.10;;;;;;;8.51;78.56;93955.34;5006512;28;20558;-78
2024/01/03 06:11:33;;;;;;;6.13;1.20;;;;;;;8.47;79.42;93958.44;5022672;28;20205;-78
2024/01/03 06:13:58;;;;;;;6.20;1.37;;;;;;;8.30;79.37;93962.91;5006497;28;20211;-78
2024/01/03 06:16:23;;;;;;;4.53;1.40;;;;;;;8.71;78.53;93971.19;5004421;28;20179;-77
2024/01/03 06:18:49;;;;;;;3.83;1.20;;;;;;;8.51;79.75;93959.72;5026632;28;20257;-78
2024/01/03 06:21:14;;;;;;;3.43;0.97;;;;;;;8.44;81.36;93956.22;5024550;28;20208;-78
2024/01/03 06:23:40;;;;;;;6.03;1.23;;;;;;;8.43;81.93;93970.94;5022748;28;20194;-77
2024/01/03 06:26:06;;;;;;;3.93;1.10;;;;;;;8.42;81.92;93971.13;5021377;28;20183;-77
2024/01/03 06:28:32;;;;;;;4.93;1.50;;;;;;;8.14;82.63;93976.75;5008369;28;20205;-77
2024/01/03 06:30:57;;;;;;;5.53;1.40;;;;;;;8.34;82.11;93982.28;5021007;28;20179;-77
2024/01/03 06:33:22;;;;;;;3.47;1.20;;;;;;;8.15;81.74;93960.25;5021769;28;20195;-78
2024/01/03 06:35:48;;;;;;;4.97;1.47;;;;;;;8.31;80.88;93958.56;5022661;28;20203;-77
2024/01/03 06:38:13;;;;;;;5.17;1.37;;;;;;;8.32;80.23;93952.41;5003974;28;20756;-78
2024/01/03 06:40:38;;;;;;;5.40;1.40;;;;;;;8.33;80.20;93962.56;5018921;28;20211;-77
2024/01/03 06:43:04;;;;;;;4.90;0.93;;;;;;;8.38;79.64;93952.53;5024347;28;20187;-77
2024/01/03 06:45:29;;;;;;;3.37;1.10;;;;;;;8.53;79.16;93952.59;5025072;28;20185;-78
2024/01/03 06:47:55;;;;;;;6.30;1.00;;;;;;;8.44;79.79;93969.94;5020604;28;20209;-77
2024/01/03 06:50:20;;;;;;;3.00;1.00;;;;;;;8.42;78.71;93953.00;5017237;28;20175;-78
2024/01/03 06:52:45;;;;;;;4.83;0.93;;;;;;;8.53;78.98;93957.75;5008430;28;20191;-78
2024/01/03 06:55:11;;;;;;;2.67;1.00;;;;;;;8.54;78.23;93956.78;5019273;28;20574;-77
2024/01/03 06:57:36;;;;;;;2.60;1.10;;;;;;;8.55;77.71;93948.03;5017415;28;20196;-77
2024/01/03 07:00:02;;;;;;;3.23;1.20;;;;;;;8.42;78.34;93960.75;5017594;28;20684;-77
2024/01/03 07:02:27;;;;;;;3.63;0.93;;;;;;;8.73;78.03;93953.72;5018700;28;20640;-77
2024/01/03 07:04:52;;;;;;;4.57;1.40;;;;;;;8.71;77.77;93955.66;5020687;28;20191;-77
2024/01/03 07:07:18;;;;;;;6.33;1.07;;;;;;;8.74;77.20;93955.31;5005321;28;20635;-78
2024/01/03 07:09:44;;;;;;;1.43;0.60;;;;;;;8.69;77.22;93957.63;5024185;28;20194;-78
2024/01/03 07:12:09;;;;;;;4.47;1.20;;;;;;;8.80;76.98;93961.59;5018257;28;20191;-77
2024/01/03 07:14:34;;;;;;;3.73;1.37;;;;;;;8.89;76.90;93950.19;5017761;28;20200;-78
2024/01/03 07:17:00;;;;;;;4.10;0.97;;;;;;;8.83;76.77;93960.41;5009494;28;20241;-78
2024/01/03 07:19:25;;;;;;;5.63;1.00;;;;;;;8.71;76.62;93957.47;5028100;28;20246;-78
2024/01/03 07:21:50;;;;;;;4.10;1.17;;;;;;;8.89;77.04;93949.38;5022591;28;20187;-77
2024/01/03 07:24:16;;;;;;;8.83;1.40;;;;;;;8.83;77.87;93970.78;5020003;28;20175;-78
2024/01/03 07:26:41;;;;;;;5.10;1.00;;;;;;;8.75;78.54;93972.47;5005100;28;20191;-76
2024/01/03 07:29:06;;;;;;;3.47;1.10;;;;;;;8.63;79.47;93989.38;5009848;28;20328;-77
2024/01/03 07:31:32;;;;;;;5.47;1.07;;;;;;;8.60;79.17;93973.41;5019849;28;20692;-76
2024/01/03 07:33:57;;;;;;;4.97;1.17;;;;;;;8.88;78.57;93966.69;5003601;28;20241;-78
2024/01/03 07:36:22;;;;;;;5.80;1.20;;;;;;;8.56;78.09;93967.75;5025930;28;20190;-78
2024/01/03 07:38:48;;;;;;;1.83;0.93;;;;;;;8.97;77.26;93962.25;5016511;28;20812;-78
2024/01/03 07:41:18;;;;;;;4.07;1.50;;;;;;;8.73;77.22;93974.41;5014656;28;20808;-77
2024/01/03 07:43:43;;;;;;;4.70;1.10;;;;;;;8.76;77.02;93952.56;5013008;28;20195;-77
2024/01/03 07:46:09;;;;;;;3.43;0.93;;;;;;;8.93;76.38;93964.38;5001079;28;20198;-76
2024/01/03 07:48:34;;;;;;;5.63;1.10;;;;;;;9.03;75.56;93962.34;5019572;28;20206;-78
2024/01/03 07:50:59;;;;;;;4.03;1.30;;;;;;;8.76;76.65;93955.97;5005860;28;20187;-77
2024/01/03 07:53:25;;;;;;;4.63;1.10;;;;;;;9.00;76.08;93969.66;5027467;28;20206;-78
2024/01/03 07:55:50;;;;;;;2.70;1.07;;;;;;;8.87;75.36;93953.94;5025858;28;20206;-78
2024/01/03 07:58:15;;;;;;;2.83;1.00;;;;;;;8.84;75.60;93965.44;5023501;28;20241;-78
2024/01/03 08:00:41;;;;;;;3.73;0.90;;;;;;;9.03;75.78;93958.97;5023613;28;20184;-77
2024/01/03 08:03:06;;;;;;;4.27;0.90;;;;;;;9.00;75.40;93954.91;5022520;28;20187;-78
2024/01/03 08:05:31;;;;;;;4.10;1.07;;;;;;;9.12;74.85;93957.09;5008877;28;20210;-78
2024/01/03 08:08:00;;;;;;;3.97;1.30;;;;;;;9.31;75.10;93967.72;5006602;28;20202;-79
2024/01/03 08:10:28;;;;;;;3.47;1.00;;;;;;;9.09;75.14;93959.03;5028881;28;20259;-78
2024/01/03 08:12:53;;;;;;;4.97;1.27;;;;;;;9.17;75.38;93967.72;5004638;28;20191;-78
2024/01/03 08:15:19;;;;;;;5.47;1.20;;;;;;;9.05;75.76;93962.16;5008371;28;20219;-78
2024/01/03 08:17:44;;;;;;;4.37;1.23;;;;;;;9.06;75.59;93936.09;5022840;28;20215;-78
2024/01/03 08:20:10;;;;;;;3.43;1.00;;;;;;;9.17;75.22;93939.22;5012567;28;20246;-78
2024/01/03 08:22:35;;;;;;;3.77;1.13;;;;;;;9.24;74.37;93938.34;5022868;28;20198;-78
2024/01/03 08:25:01;;;;;;;3.63;1.17;;;;;;;9.52;73.35;93942.88;5022124;28;20182;-79
2024/01/03 08:27:26;;;;;;;1.77;0.80;;;;;;;9.32;74.89;93953.00;5007017;28;20207;-76
2024/01/03 08:29:51;;;;;;;2.23;0.93;;;;;;;9.35;76.06;93992.28;5017474;28;20202;-78
2024/01/03 08:32:17;;;;;;;3.97;0.90;;;;;;;9.05;77.03;93950.03;5013356;28;20184;-79
2024/01/03 08:34:45;;;;;;;2.70;1.10;;;;;;;9.04;77.98;93970.91;5027592;28;20210;-77
2024/01/03 08:37:11;;;;;;;4.43;1.00;;;;;;;9.04;79.04;93957.97;4998766;28;20657;-77
2024/01/03 08:39:36;;;;;;;1.90;0.83;;;;;;;8.67;80.29;93956.22;5014870;28;20196;-78
2024/01/03 08:42:01;;;;;;;3.97;0.60;;;;;;;8.93;80.38;93963.59;5012695;28;20266;-78
2024/01/03 08:44:27;;;;;;;3.27;0.80;;;;;;;9.17;79.67;93978.06;5015101;28;20175;-77
2024/01/03 08:46:53;;;;;;;1.63;1.00;;;;;;;8.87;80.04;93959.09;5001038;28;20551;-79
2024/01/03 08:49:18;;;;;;;3.17;0.70;;;;;;;8.83;80.56;93965.59;5015993;28;20226;-78
2024/01/03 08:51:48;;;;;;;4.50;0.80;;;;;;;8.65;80.10;93974.47;5017193;28;20187;-78
2024/01/03 08:54:14;;;;;;;2.13;1.00;;;;;;;8.94;79.88;93965.19;5022066;28;20217;-78
2024/01/03 08:56:40;;;;;;;2.57;0.90;;;;;;;8.71;81.23;93954.88;5020891;28;20187;-78
2024/01/03 08:59:05;;;;;;;3.13;1.00;;;;;;;8.96;79.95;93958.03;5017413;28;20585;-77
2024/01/03 09:01:34;;;;;;;2.70;1.00;;;;;;;8.65;79.77;93971.09;5020102;28;20191;-78
2024/01/03 09:03:59;;;;;;;1.57;0.93;;;;;;;9.01;78.85;93950.53;5003594;28;20187;-77
2024/01/03 09:06:25;;;;;;;2.07;0.83;;;;;;;9.21;77.99;93972.38;5019545;28;20244;-77
2024/01/03 09:08:51;;;;;;;2.60;0.93;;;;;;;9.28;77.11;93957.72;5016044;28;20217;-77
2024/01/03 09:11:18;;;;;;;1.53;0.70;;;;;;;9.16;77.37;93984.22;5002347;28;20266;-77
2024/01/03 09:13:48;;;;;;;1.07;0.53;;;;;;;9.04;76.58;94007.16;4999997;28;20206;-78
2024/01/03 09:16:14;;;;;;;2.00;0.70;;;;;;;9.46;75.51;93977.31;5015344;28;20301;-83
2024/01/03 09:18:39;;;;;;;3.50;1.00;;;;;;;9.24;76.17;93990.13;5016612;28;20206;-78
2024/01/03 09:21:04;;;;;;;1.93;0.50;;;;;;;9.39;75.53;93984.97;5020268;28;20547;-76
2024/01/03 09:23:33;;;;;;;2.57;0.77;;;;;;;9.46;75.39;93992.84;5002880;28;20230;-81
2024/01/03 09:25:59;;;;;;;5.33;1.07;;;;;;;9.67;75.08;93992.91;5005691;28;20203;-79
2024/01/03 09:28:25;;;;;;;1.80;0.77;;;;;;;9.36;76.22;93988.75;5026394;28;20209;-79
2024/01/03 09:30:51;;;;;;;4.83;1.43;;;;;;;9.44;76.01;93994.78;5022555;28;20233;-78
2024/01/03 09:33:17;;;;;;;2.63;0.67;;;;;;;9.44;76.39;94007.75;5004347;28;20202;-79
2024/01/03 09:35:43;;;;;;;1.77;0.97;;;;;;;9.15;77.28;94005.94;5000493;28;20203;-77
2024/01/03 09:38:09;;;;;;;2.60;0.80;;;;;;;9.49;77.85;93982.13;5003419;28;20207;-81
2024/01/03 09:40:35;;;;;;;1.93;0.47;;;;;;;9.39;79.30;93979.00;5006354;28;20185;-81
2024/01/03 09:43:02;;;;;;;2.20;0.63;;;;;;;9.88;77.94;93989.59;5022867;28;20195;-78
2024/01/03 09:45:27;;;;;;;1.30;0.47;;;;;;;9.45;80.17;94004.16;5008404;28;20171;-77
2024/01/03 09:47:53;;;;;;;1.47;0.60;;;;;;;9.46;80.13;93998.84;5005351;28;20214;-78
2024/01/03 09:50:18;;;;;;;1.23;0.40;;;;;;;9.52;80.94;94005.06;5019193;28;21504;-82
2024/01/03 09:52:44;;;;;;;1.90;0.80;;;;;;;9.54;81.58;94006.53;5018051;28;20577;-78
2024/01/03 09:55:10;;;;;;;2.10;0.50;;;;;;;9.26;83.12;94005.50;5007564;28;20210;-79
2024/01/03 09:57:37;;;;;;;0.70;0.40;;;;;;;9.03;85.56;94010.75;5005843;28;20233;-78
2024/01/03 10:00:03;;;;;;;0.97;0.50;;;;;;;8.73;87.78;94015.81;4999923;28;20210;-82
2024/01/03 10:02:28;;;;;;;3.87;0.90;;;;;;;8.71;88.98;94016.97;5020178;28;20187;-80
2024/01/03 10:04:54;;;;;;;1.67;1.20;;;;;;;8.87;89.26;94023.81;5003912;28;20194;-78
2024/01/03 10:07:33;;;;;;;0.77;0.60;;;;;;;8.84;89.03;94029.34;5006310;28;20700;-78
2024/01/03 10:09:58;;;;;;;1.43;0.60;;;;;;;8.65;89.89;94028.00;5023823;28;20179;-80
2024/01/03 10:12:24;;;;;;;2.60;0.53;;;;;;;8.46;91.59;94029.28;5025842;28;20187;-79
2024/01/03 10:14:50;;;;;;;0.83;0.70;;;;;;;8.54;91.28;94024.03;5024411;28;20199;-79
2024/01/03 10:17:15;;;;;;;1.07;0.77;;;;;;;8.82;90.59;94013.16;5022323;28;20287;-79
2024/01/03 10:19:41;;;;;;;0.77;0.40;;;;;;;8.42;91.06;94023.66;5011241;28;20187;-79
2024/01/03 10:22:06;;;;;;;0.70;0.70;;;;;;;8.69;90.24;94019.75;5026283;28;20187;-79
2024/01/03 10:24:31;;;;;;;0.80;0.40;;;;;;;8.84;90.08;94000.88;5008619;28;20179;-79
2024/01/03 10:27:10;;;;;;;1.17;0.50;;;;;;;8.55;90.78;94025.66;5023011;28;20630;-79
2024/01/03 10:29:39;;;;;;;1.50;0.60;;;;;;;8.89;90.41;94017.47;5026857;28;20296;-79
2024/01/03 10:32:09;;;;;;;0.87;0.60;;;;;;;8.32;91.44;94024.81;5027921;28;20182;-81
2024/01/03 10:34:35;;;;;;;0.50;0.50;;;;;;;8.76;90.99;94036.19;5005691;28;20203;-78
2024/01/03 10:37:01;;;;;;;0.50;0.50;;;;;;;8.68;89.85;94019.91;5027327;28;20226;-79
2024/01/03 10:39:28;;;;;;;2.20;0.70;;;;;;;8.99;89.72;94036.16;5027521;28;20668;-78
2024/01/03 10:41:54;;;;;;;3.00;0.90;;;;;;;8.68;89.43;94012.97;5023938;28;20205;-78
2024/01/03 10:44:20;;;;;;;1.90;0.60;;;;;;;8.72;88.77;94024.56;5028530;28;20184;-79
2024/01/03 10:46:47;;;;;;;0.90;0.63;;;;;;;9.07;87.85;94017.97;5024297;28;20179;-80
2024/01/03 10:49:12;;;;;;;0.97;0.60;;;;;;;8.85;86.51;94007.66;5025703;28;20185;-78
2024/01/03 10:51:44;;;;;;;3.93;0.77;;;;;;;9.07;87.41;94030.13;5006070;28;20203;-79
2024/01/03 10:54:13;;;;;;;2.27;1.30;;;;;;;9.44;85.97;94012.94;5010496;28;20269;-77
2024/01/03 10:56:41;;;;;;;1.40;0.80;;;;;;;9.01;85.17;94020.44;5026163;28;20232;-79
2024/01/03 10:59:07;;;;;;;2.33;0.83;;;;;;;9.25;84.44;94003.88;5024589;28;20201;-78
2024/01/03 11:01:44;;;;;;;2.77;0.80;;;;;;;8.91;83.87;94018.09;5003408;28;20210;-79
2024/01/03 11:04:23;;;;;;;3.27;1.33;;;;;;;9.30;82.70;93992.03;5020309;28;20215;-79
2024/01/03 11:06:54;;;;;;;4.13;0.90;;;;;;;8.89;81.95;94038.19;5016046;28;20194;-80
2024/01/03 11:09:21;;;;;;;3.00;1.73;;;;;;;9.08;82.39;94018.78;5029698;28;20187;-80
2024/01/03 11:11:46;;;;;;;3.47;0.90;;;;;;;9.22;81.43;94019.78;5011225;28;20202;-78
2024/01/03 11:14:18;;;;;;;4.53;1.13;;;;;;;9.43;80.75;94024.28;5016171;28;20270;-79
2024/01/03 11:16:44;;;;;;;5.20;1.03;;;;;;;9.57;80.56;94018.31;5028317;28;20187;-78
2024/01/03 11:19:10;;;;;;;2.83;1.20;;;;;;;9.59;79.94;94021.53;5014665;28;20609;-79
2024/01/03 11:21:35;;;;;;;3.90;0.77;;;;;;;9.44;80.71;94012.94;5031952;28;20213;-78
2024/01/03 11:24:24;;;;;;;4.20;1.10;;;;;;;9.47;79.55;94002.22;5028948;28;20567;-79
2024/01/03 11:26:55;;;;;;;2.60;0.80;;;;;;;9.55;79.19;93991.78;5020236;28;20205;-78
2024/01/03 11:29:36;;;;;;;1.60;0.80;;;;;;;9.56;78.98;93995.97;5032170;28;20214;-77
2024/01/03 11:32:04;;;;;;;4.47;1.10;;;;;;;9.38;77.77;93988.56;5022875;28;20195;-77
2024/01/03 11:34:38;;;;;;;3.17;0.80;;;;;;;9.54;77.87;93998.75;5027850;28;20207;-78
2024/01/03 11:37:28;;;;;;;3.57;1.07;;;;;;;9.66;76.99;93986.13;5035197;28;20198;-78